KHDE/HDE METAR and TAF weather

Enter ICAO airport designator
Station Type Date Time Source
KHDE METAR 2019/12/12 09:15 UTC NOAA

KHDE 120915Z AUTO 24006KT 10SM CLR 01/00 A2993 RMK AO2 T00131001


Station Type Date Time Source
KHDE Decoded METAR 2019/12/12 09:15 UTC NOAA

Brewster Field Airport, NE, United States (KHDE) 40-27N 099-20W
Dec 12, 2019 - 04:15 AM EST / 2019.12.12 0915 UTC
Wind: from the WSW (240 degrees) at 7 MPH (6 KT):0
Visibility: 10 mile(s):0
Sky conditions: clear
Temperature: 34.3 F (1.3 C)
Windchill: 28 F (-2 C):1
Dew Point: 31.8 F (-0.1 C)
Relative Humidity: 90%
Pressure (altimeter): 29.93 in. Hg (1013 hPa)
ob: KHDE 120915Z AUTO 24006KT 10SM CLR 01/00 A2993 RMK AO2 T00131001
cycle: 9

Station Type Date Time Source
KHDE TAF UTC NOAA

Error!

Example: see airport list